Time;durP1;ratioP1;P1;durP2;ratioP2;P2;SDS_P1;SDS_P2;PMS_P1;PMS_P2;Temp;Humidity;BMP_temperature;BMP_pressure;BME280_temperature;BME280_humidity;BME280_pressure;Samples;Min_cycle;Max_cycle;Signal;HPM_P1;HPM_P2
2021/07/09 00:00:54;;;;;;;7.53;4.78;;;;;;;;;;8163858;28;20473;-71
2021/07/09 00:05:00;;;;;;;8.05;5.40;;;;;;;;;;8173884;28;20058;-72
2021/07/09 00:09:07;;;;;;;8.82;4.82;;;;;;;;;;8164866;28;20405;-72
2021/07/09 00:13:12;;;;;;;8.23;4.63;;;;;;;;;;8163920;28;20062;-72
2021/07/09 00:17:17;;;;;;;7.47;5.20;;;;;;;;;;8166750;28;20385;-72
2021/07/09 00:21:23;;;;;;;9.10;5.47;;;;;;;;;;8165088;28;20370;-72
2021/07/09 00:25:29;;;;;;;7.45;5.18;;;;;;;;;;8165546;28;20342;-72
2021/07/09 00:29:34;;;;;;;11.68;6.03;;;;;;;;;;8146989;28;20057;-73
2021/07/09 00:33:40;;;;;;;8.82;6.05;;;;;;;;;;8165846;28;20377;-72
2021/07/09 00:37:45;;;;;;;12.40;5.95;;;;;;;;;;8164619;28;20476;-72
2021/07/09 00:41:52;;;;;;;8.40;6.28;;;;;;;;;;8164097;28;20365;-75
2021/07/09 00:45:56;;;;;;;9.80;5.90;;;;;;;;;;8164318;28;20365;-71
2021/07/09 00:50:02;;;;;;;11.20;6.47;;;;;;;;;;8166207;28;20069;-73
2021/07/09 00:54:08;;;;;;;18.35;6.82;;;;;;;;;;8162744;28;20050;-72
2021/07/09 00:58:13;;;;;;;10.15;6.47;;;;;;;;;;8161619;28;20523;-72
2021/07/09 01:02:19;;;;;;;11.80;7.32;;;;;;;;;;8162402;28;20466;-72
2021/07/09 01:06:25;;;;;;;16.10;7.65;;;;;;;;;;8161774;28;20512;-72
2021/07/09 01:10:30;;;;;;;9.88;7.65;;;;;;;;;;8162746;28;20046;-72
2021/07/09 01:14:37;;;;;;;9.07;7.80;;;;;;;;;;8162054;28;20054;-72
2021/07/09 01:18:43;;;;;;;10.05;7.57;;;;;;;;;;8163402;28;20370;-72
2021/07/09 01:22:50;;;;;;;13.45;7.13;;;;;;;;;;8145450;28;20069;-72
2021/07/09 01:26:56;;;;;;;11.77;7.13;;;;;;;;;;8161171;28;20050;-72
2021/07/09 01:31:00;;;;;;;11.25;7.07;;;;;;;;;;8163496;28;20385;-72
2021/07/09 01:35:07;;;;;;;10.07;7.18;;;;;;;;;;8160873;28;20073;-72
2021/07/09 01:39:12;;;;;;;9.43;6.70;;;;;;;;;;8161567;28;20454;-72
2021/07/09 01:43:18;;;;;;;11.60;6.93;;;;;;;;;;8164539;28;20461;-72
2021/07/09 01:47:24;;;;;;;11.23;7.45;;;;;;;;;;8161421;28;20089;-72
2021/07/09 01:51:30;;;;;;;8.75;6.95;;;;;;;;;;8161610;28;20478;-72
2021/07/09 01:55:35;;;;;;;12.10;6.65;;;;;;;;;;8161768;28;20497;-72
2021/07/09 01:59:41;;;;;;;11.88;7.43;;;;;;;;;;8162299;28;20482;-72
2021/07/09 02:03:47;;;;;;;12.70;7.18;;;;;;;;;;8163592;28;20373;-71
2021/07/09 02:07:55;;;;;;;10.35;6.95;;;;;;;;;;8163245;28;20366;-72
2021/07/09 02:12:01;;;;;;;10.90;6.95;;;;;;;;;;8161873;28;20442;-72
2021/07/09 02:16:06;;;;;;;8.98;6.50;;;;;;;;;;8161341;28;20470;-72
2021/07/09 02:20:19;;;;;;;15.63;6.68;;;;;;;;;;8160754;28;20425;-72
2021/07/09 02:24:23;;;;;;;10.55;6.97;;;;;;;;;;8160864;28;20376;-72
2021/07/09 02:28:28;;;;;;;9.40;6.57;;;;;;;;;;8160947;28;20457;-72
2021/07/09 02:32:34;;;;;;;9.13;6.63;;;;;;;;;;8159886;28;20042;-72
2021/07/09 02:36:39;;;;;;;12.13;7.35;;;;;;;;;;8160727;28;20334;-71
2021/07/09 02:40:44;;;;;;;10.27;6.72;;;;;;;;;;8161121;28;20485;-71
2021/07/09 02:44:50;;;;;;;11.95;6.68;;;;;;;;;;8160602;28;20462;-72
2021/07/09 02:48:55;;;;;;;8.00;6.05;;;;;;;;;;8161975;28;20413;-72
2021/07/09 02:53:01;;;;;;;8.88;6.78;;;;;;;;;;8159833;28;20054;-72
2021/07/09 02:57:06;;;;;;;10.48;7.00;;;;;;;;;;8160807;28;20363;-72
2021/07/09 03:01:12;;;;;;;7.85;6.53;;;;;;;;;;8160408;28;20378;-71
2021/07/09 03:05:18;;;;;;;8.38;6.35;;;;;;;;;;8159852;28;20385;-71
2021/07/09 03:09:23;;;;;;;11.00;7.00;;;;;;;;;;8161071;28;20034;-73
2021/07/09 03:13:28;;;;;;;11.32;6.50;;;;;;;;;;8159610;28;20466;-72
2021/07/09 03:17:34;;;;;;;9.30;6.28;;;;;;;;;;8160792;28;20374;-72
2021/07/09 03:21:40;;;;;;;10.25;6.15;;;;;;;;;;8144067;28;20481;-72
2021/07/09 03:25:45;;;;;;;10.35;6.32;;;;;;;;;;8159578;28;20461;-72
2021/07/09 03:29:50;;;;;;;8.73;6.35;;;;;;;;;;8161814;28;20402;-72
2021/07/09 03:33:56;;;;;;;8.57;6.25;;;;;;;;;;8158275;28;20366;-72
2021/07/09 03:38:01;;;;;;;9.80;6.10;;;;;;;;;;8162132;28;20472;-71
2021/07/09 03:42:06;;;;;;;9.15;6.43;;;;;;;;;;8160494;28;20398;-72
2021/07/09 03:46:11;;;;;;;9.95;6.78;;;;;;;;;;8159295;28;20181;-72
2021/07/09 03:50:17;;;;;;;12.82;6.53;;;;;;;;;;8157286;28;20397;-72
2021/07/09 03:54:23;;;;;;;13.73;5.70;;;;;;;;;;8161124;28;20058;-72
2021/07/09 03:58:31;;;;;;;10.25;6.70;;;;;;;;;;8162867;28;20046;-72
2021/07/09 04:02:36;;;;;;;9.88;6.38;;;;;;;;;;8161084;28;20481;-72
2021/07/09 04:06:42;;;;;;;7.00;6.05;;;;;;;;;;8148302;28;20377;-73
2021/07/09 04:10:47;;;;;;;11.15;5.95;;;;;;;;;;8167508;28;20390;-72
2021/07/09 04:14:52;;;;;;;8.90;5.85;;;;;;;;;;8165477;28;20035;-72
2021/07/09 04:18:57;;;;;;;8.55;5.72;;;;;;;;;;8178808;28;20358;-72
2021/07/09 04:23:02;;;;;;;10.80;5.28;;;;;;;;;;8164948;28;20042;-71
2021/07/09 04:27:08;;;;;;;12.10;5.68;;;;;;;;;;8145363;28;20405;-72
2021/07/09 04:31:14;;;;;;;7.85;5.75;;;;;;;;;;8196572;28;20468;-72
2021/07/09 04:35:20;;;;;;;6.38;5.40;;;;;;;;;;8194499;28;20357;-72
2021/07/09 04:39:25;;;;;;;7.72;5.20;;;;;;;;;;8197018;28;20069;-72
2021/07/09 04:43:30;;;;;;;9.20;5.28;;;;;;;;;;8177170;28;20042;-72
2021/07/09 04:47:36;;;;;;;7.53;5.50;;;;;;;;;;8164853;28;20429;-72
2021/07/09 04:51:41;;;;;;;7.30;5.35;;;;;;;;;;8179386;28;20461;-72
2021/07/09 04:55:47;;;;;;;10.18;5.40;;;;;;;;;;8125777;28;20405;-73
2021/07/09 04:59:52;;;;;;;8.95;5.43;;;;;;;;;;8167663;28;20496;-72
2021/07/09 05:03:58;;;;;;;11.02;6.32;;;;;;;;;;8159994;28;20054;-71
2021/07/09 05:08:05;;;;;;;9.70;6.18;;;;;;;;;;8163303;28;20482;-71
2021/07/09 05:12:11;;;;;;;7.43;5.63;;;;;;;;;;8163015;28;20051;-73
2021/07/09 05:16:17;;;;;;;9.25;5.97;;;;;;;;;;8188627;28;20420;-72
2021/07/09 05:20:23;;;;;;;7.53;5.68;;;;;;;;;;8195235;28;20479;-72
2021/07/09 05:24:28;;;;;;;7.97;6.10;;;;;;;;;;8164612;28;20042;-73
2021/07/09 05:28:33;;;;;;;11.55;5.40;;;;;;;;;;8132779;28;20475;-72
2021/07/09 05:32:42;;;;;;;7.45;5.43;;;;;;;;;;8160664;28;20485;-72
2021/07/09 05:36:48;;;;;;;7.05;5.95;;;;;;;;;;8162343;28;20492;-72
2021/07/09 05:40:53;;;;;;;9.27;5.40;;;;;;;;;;8161453;28;20061;-72
2021/07/09 05:44:58;;;;;;;8.43;5.72;;;;;;;;;;8163490;28;20366;-72
2021/07/09 05:49:04;;;;;;;9.57;5.40;;;;;;;;;;8177611;28;20054;-72
2021/07/09 05:53:09;;;;;;;6.72;5.53;;;;;;;;;;8161173;28;20412;-72
2021/07/09 05:57:19;;;;;;;8.35;5.65;;;;;;;;;;8161017;28;20327;-72
2021/07/09 06:01:23;;;;;;;7.35;5.57;;;;;;;;;;8163436;28;20474;-71
2021/07/09 06:05:29;;;;;;;7.60;5.60;;;;;;;;;;8163210;28;20346;-72
2021/07/09 06:09:34;;;;;;;8.15;6.00;;;;;;;;;;8164474;28;20334;-73
2021/07/09 06:13:43;;;;;;;11.32;7.00;;;;;;;;;;8154784;28;20046;-74
2021/07/09 06:17:55;;;;;;;11.02;6.03;;;;;;;;;;8163510;28;20457;-72
2021/07/09 06:22:00;;;;;;;10.85;6.95;;;;;;;;;;8163215;28;20441;-73
2021/07/09 06:26:05;;;;;;;11.15;7.43;;;;;;;;;;8161076;28;20488;-73
2021/07/09 06:30:12;;;;;;;10.80;6.60;;;;;;;;;;8161697;28;20343;-73
2021/07/09 06:34:17;;;;;;;12.23;5.55;;;;;;;;;;8144558;28;20342;-73
2021/07/09 06:38:23;;;;;;;6.90;5.35;;;;;;;;;;8160211;28;20492;-72
2021/07/09 06:42:28;;;;;;;11.02;5.78;;;;;;;;;;8161061;28;20495;-72
2021/07/09 06:46:33;;;;;;;8.68;5.25;;;;;;;;;;8159811;28;20349;-73
2021/07/09 06:50:39;;;;;;;9.75;5.22;;;;;;;;;;8175006;28;20470;-73
2021/07/09 06:54:44;;;;;;;8.63;5.05;;;;;;;;;;8159788;28;20462;-73
2021/07/09 06:58:50;;;;;;;8.13;5.18;;;;;;;;;;8160189;28;20355;-72
2021/07/09 07:02:54;;;;;;;7.00;5.38;;;;;;;;;;8161887;28;20367;-72
2021/07/09 07:07:04;;;;;;;6.53;5.45;;;;;;;;;;8159630;28;20456;-73
2021/07/09 07:11:10;;;;;;;12.20;5.70;;;;;;;;;;8159591;28;20039;-73
2021/07/09 07:15:15;;;;;;;9.03;6.13;;;;;;;;;;8160171;28;20390;-72
2021/07/09 07:19:20;;;;;;;10.35;6.40;;;;;;;;;;8134974;28;20375;-73
2021/07/09 07:23:27;;;;;;;16.65;6.72;;;;;;;;;;8162410;28;20481;-72
2021/07/09 07:27:32;;;;;;;11.85;6.30;;;;;;;;;;8159531;28;20500;-72
2021/07/09 07:31:38;;;;;;;11.20;6.38;;;;;;;;;;8158267;28;20398;-72
2021/07/09 07:35:42;;;;;;;9.75;5.90;;;;;;;;;;8092662;28;20373;-74
2021/07/09 07:39:48;;;;;;;9.10;5.90;;;;;;;;;;8175541;28;20473;-72
2021/07/09 07:43:53;;;;;;;7.45;5.95;;;;;;;;;;8167180;28;20073;-72
2021/07/09 07:47:58;;;;;;;8.55;5.53;;;;;;;;;;8165301;28;20046;-72
2021/07/09 07:52:04;;;;;;;11.55;6.20;;;;;;;;;;8117221;28;20770;-72
2021/07/09 07:56:09;;;;;;;7.22;5.72;;;;;;;;;;8031409;28;20047;-73
2021/07/09 08:00:15;;;;;;;7.22;5.65;;;;;;;;;;8069818;28;20408;-73
2021/07/09 08:04:21;;;;;;;8.25;6.10;;;;;;;;;;8156539;28;20072;-73
2021/07/09 08:08:26;;;;;;;11.85;6.75;;;;;;;;;;8107367;28;20361;-72
2021/07/09 08:12:31;;;;;;;8.85;5.95;;;;;;;;;;8131104;28;20405;-72
2021/07/09 08:16:37;;;;;;;8.30;5.50;;;;;;;;;;8161192;28;20362;-72
2021/07/09 08:20:44;;;;;;;10.60;5.90;;;;;;;;;;8166847;28;20398;-72
2021/07/09 08:24:49;;;;;;;9.35;5.38;;;;;;;;;;8165811;28;20401;-72
2021/07/09 08:28:55;;;;;;;9.90;5.80;;;;;;;;;;8167671;28;20500;-72
2021/07/09 08:33:00;;;;;;;14.57;5.80;;;;;;;;;;8165214;28;20508;-72
2021/07/09 08:37:06;;;;;;;10.30;5.27;;;;;;;;;;8166615;28;20353;-72
2021/07/09 08:41:14;;;;;;;10.10;5.50;;;;;;;;;;8165249;28;20588;-73
2021/07/09 08:45:19;;;;;;;11.43;5.55;;;;;;;;;;8167584;28;20366;-72
2021/07/09 08:49:25;;;;;;;7.63;5.43;;;;;;;;;;8130135;28;20529;-72
2021/07/09 08:53:30;;;;;;;8.13;5.60;;;;;;;;;;8164435;28;20047;-72
2021/07/09 08:57:36;;;;;;;11.80;5.53;;;;;;;;;;8166172;28;20046;-72
2021/07/09 09:02:08;;;;;;;9.85;5.47;;;;;;;;;;8162096;28;20362;-73
2021/07/09 09:06:17;;;;;;;6.82;4.65;;;;;;;;;;8160500;28;20473;-72
2021/07/09 09:10:33;;;;;;;8.18;4.85;;;;;;;;;;8163184;28;20470;-72
2021/07/09 09:14:51;;;;;;;9.93;4.93;;;;;;;;;;8155769;28;20373;-72
2021/07/09 09:18:57;;;;;;;6.82;5.28;;;;;;;;;;8122927;28;20342;-72
2021/07/09 09:23:05;;;;;;;;;;;;;;;;;;8079198;28;20462;-72
2021/07/09 09:27:21;;;;;;;6.53;5.18;;;;;;;;;;8137312;28;20237;-71
2021/07/09 09:31:33;;;;;;;7.68;5.13;;;;;;;;;;8165309;28;20358;-72
2021/07/09 09:35:47;;;;;;;7.95;5.90;;;;;;;;;;8126846;28;20472;-73
2021/07/09 09:39:53;;;;;;;9.45;5.38;;;;;;;;;;8026161;28;20080;-72
2021/07/09 09:44:15;;;;;;;11.40;5.60;;;;;;;;;;8160627;28;20484;-71
2021/07/09 09:48:20;;;;;;;6.97;5.53;;;;;;;;;;8187532;28;20050;-72
2021/07/09 09:52:42;;;;;;;8.80;5.60;;;;;;;;;;8192682;28;20473;-72
2021/07/09 09:56:48;;;;;;;12.10;5.30;;;;;;;;;;8107624;28;20368;-72
2021/07/09 10:00:53;;;;;;;7.30;5.60;;;;;;;;;;8207343;28;20062;-73
2021/07/09 10:05:01;;;;;;;6.80;5.75;;;;;;;;;;8195411;28;20357;-72
2021/07/09 10:09:06;;;;;;;7.50;5.15;;;;;;;;;;8193738;28;20045;-72
2021/07/09 10:13:20;;;;;;;8.95;5.50;;;;;;;;;;8193795;28;20046;-72
2021/07/09 10:17:28;;;;;;;10.95;6.50;;;;;;;;;;8192127;28;20477;-73
2021/07/09 10:21:33;;;;;;;11.07;6.40;;;;;;;;;;8193503;28;20454;-72
2021/07/09 10:25:39;;;;;;;9.73;6.20;;;;;;;;;;8193474;28;20041;-73
2021/07/09 10:29:48;;;;;;;9.07;6.30;;;;;;;;;;8193609;28;20541;-73
2021/07/09 10:33:53;;;;;;;7.80;5.95;;;;;;;;;;8195005;28;20461;-72
2021/07/09 10:38:10;;;;;;;9.38;7.60;;;;;;;;;;8193269;28;20046;-73
2021/07/09 10:42:29;;;;;;;7.68;6.15;;;;;;;;;;8193487;28;20076;-72
2021/07/09 10:46:35;;;;;;;6.63;5.32;;;;;;;;;;8191862;28;20473;-72
2021/07/09 10:50:54;;;;;;;7.45;6.15;;;;;;;;;;8067689;28;20432;-72
2021/07/09 10:54:59;;;;;;;57.78;10.50;;;;;;;;;;8075303;28;20466;-75
2021/07/09 10:59:05;;;;;;;28.17;8.75;;;;;;;;;;8087080;28;20050;-75
2021/07/09 11:03:10;;;;;;;43.42;13.43;;;;;;;;;;8162621;28;20493;-74
2021/07/09 11:07:21;;;;;;;10.02;5.45;;;;;;;;;;8094164;28;20364;-74
2021/07/09 11:11:39;;;;;;;14.20;5.50;;;;;;;;;;8194320;28;20038;-73
2021/07/09 11:15:59;;;;;;;11.18;5.25;;;;;;;;;;8182740;28;20362;-74
2021/07/09 11:20:16;;;;;;;22.60;5.95;;;;;;;;;;8105699;28;20375;-72
2021/07/09 11:24:31;;;;;;;10.17;5.50;;;;;;;;;;8200229;28;20432;-72
2021/07/09 11:28:40;;;;;;;12.02;5.20;;;;;;;;;;8197871;28;20480;-74
2021/07/09 11:32:50;;;;;;;10.73;6.57;;;;;;;;;;8182466;28;20376;-73
2021/07/09 11:37:08;;;;;;;14.63;6.82;;;;;;;;;;8138999;28;20484;-73
2021/07/09 11:41:13;;;;;;;13.82;6.43;;;;;;;;;;8197354;28;20492;-73
2021/07/09 11:45:19;;;;;;;10.45;7.45;;;;;;;;;;8143899;28;20707;-73
2021/07/09 11:49:53;;;;;;;9.77;6.57;;;;;;;;;;8167666;28;20366;-73
2021/07/09 11:54:09;;;;;;;14.88;7.28;;;;;;;;;;8176793;28;20054;-72
2021/07/09 11:58:15;;;;;;;11.27;7.13;;;;;;;;;;8164260;28;20357;-72
2021/07/09 12:02:30;;;;;;;8.43;6.53;;;;;;;;;;8180672;28;20517;-72
2021/07/09 12:06:35;;;;;;;9.13;6.50;;;;;;;;;;8165311;28;20331;-71
2021/07/09 12:10:42;;;;;;;8.55;5.60;;;;;;;;;;8165007;28;20046;-73
2021/07/09 12:14:53;;;;;;;11.70;5.35;;;;;;;;;;8165592;28;20080;-74
2021/07/09 12:18:59;;;;;;;6.85;4.97;;;;;;;;;;8178897;28;20069;-73
2021/07/09 12:23:23;;;;;;;8.82;5.88;;;;;;;;;;8147155;28;20370;-74
2021/07/09 12:27:34;;;;;;;14.02;6.70;;;;;;;;;;8164656;28;20064;-73
2021/07/09 12:31:39;;;;;;;11.25;6.65;;;;;;;;;;8163019;28;20479;-72
2021/07/09 12:35:45;;;;;;;15.15;5.15;;;;;;;;;;8163203;28;20050;-71
2021/07/09 12:39:50;;;;;;;7.55;4.13;;;;;;;;;;8162819;28;20385;-73
2021/07/09 12:44:08;;;;;;;8.48;4.15;;;;;;;;;;8182998;28;20453;-73
2021/07/09 12:48:12;;;;;;;10.95;5.13;;;;;;;;;;8208513;28;20076;-73
2021/07/09 12:53:35;;;;;;;9.68;3.97;;;;;;;;;;8201622;28;20360;-73
2021/07/09 12:57:39;;;;;;;13.00;4.55;;;;;;;;;;8175119;28;20079;-72
2021/07/09 13:01:46;;;;;;;9.77;4.90;;;;;;;;;;8194696;28;20361;-72
2021/07/09 13:06:06;;;;;;;6.88;4.82;;;;;;;;;;8210609;28;20491;-71
2021/07/09 13:10:18;;;;;;;10.75;4.93;;;;;;;;;;8196655;28;20069;-72
2021/07/09 13:14:29;;;;;;;13.73;5.07;;;;;;;;;;8193302;28;20469;-71
2021/07/09 13:18:35;;;;;;;7.75;4.90;;;;;;;;;;8193624;28;20495;-73
2021/07/09 13:22:44;;;;;;;7.30;4.43;;;;;;;;;;8194750;28;20049;-71
2021/07/09 13:26:52;;;;;;;7.60;4.25;;;;;;;;;;8194713;28;20460;-71
2021/07/09 13:30:58;;;;;;;7.78;4.22;;;;;;;;;;8194275;28;20102;-72
2021/07/09 13:35:14;;;;;;;9.73;4.05;;;;;;;;;;8194378;28;20083;-72
2021/07/09 13:39:20;;;;;;;7.28;3.92;;;;;;;;;;8210393;28;20349;-73
2021/07/09 13:43:25;;;;;;;16.80;4.45;;;;;;;;;;8209314;28;20469;-71
2021/07/09 13:47:30;;;;;;;6.55;4.45;;;;;;;;;;8195622;28;20477;-73
2021/07/09 13:51:36;;;;;;;11.30;5.07;;;;;;;;;;8194717;28;20498;-71
2021/07/09 13:55:45;;;;;;;9.52;4.43;;;;;;;;;;8209069;28;20366;-72
2021/07/09 13:59:50;;;;;;;10.40;4.13;;;;;;;;;;8193180;28;20485;-72
2021/07/09 14:03:56;;;;;;;6.25;4.35;;;;;;;;;;8196200;28;20456;-72
2021/07/09 14:08:01;;;;;;;7.35;4.43;;;;;;;;;;8120102;28;20385;-71
2021/07/09 14:12:08;;;;;;;13.05;5.10;;;;;;;;;;8193910;28;20077;-71
2021/07/09 14:16:14;;;;;;;9.52;4.40;;;;;;;;;;8193158;28;20089;-71
2021/07/09 14:20:22;;;;;;;8.43;4.80;;;;;;;;;;8193848;28;20472;-71
2021/07/09 14:24:26;;;;;;;8.75;4.93;;;;;;;;;;8206697;28;20385;-70
2021/07/09 14:28:31;;;;;;;10.82;5.03;;;;;;;;;;8208646;28;20358;-71
2021/07/09 14:32:36;;;;;;;8.13;4.97;;;;;;;;;;8207599;28;20072;-70
2021/07/09 14:36:42;;;;;;;8.45;5.13;;;;;;;;;;8206876;28;20362;-71
2021/07/09 14:40:47;;;;;;;13.98;5.38;;;;;;;;;;8192770;28;20348;-70
2021/07/09 14:44:52;;;;;;;11.35;5.20;;;;;;;;;;8191457;28;20349;-70
2021/07/09 14:48:58;;;;;;;9.18;5.43;;;;;;;;;;8191822;28;20475;-70
2021/07/09 14:53:04;;;;;;;19.00;5.90;;;;;;;;;;8192974;28;20365;-71
2021/07/09 14:57:10;;;;;;;9.87;5.93;;;;;;;;;;8192308;28;20053;-72
2021/07/09 15:01:16;;;;;;;13.20;5.78;;;;;;;;;;8191012;28;20350;-70
2021/07/09 15:05:24;;;;;;;11.90;6.63;;;;;;;;;;8179420;28;20045;-72
2021/07/09 15:09:29;;;;;;;13.27;5.97;;;;;;;;;;8222809;28;20468;-71
2021/07/09 15:13:35;;;;;;;10.20;5.72;;;;;;;;;;8224055;28;20483;-69
2021/07/09 15:17:40;;;;;;;12.35;6.57;;;;;;;;;;8225808;28;20464;-72
2021/07/09 15:21:45;;;;;;;14.73;6.55;;;;;;;;;;8238448;28;20473;-70
2021/07/09 15:25:51;;;;;;;12.02;6.82;;;;;;;;;;8239530;28;20487;-71
2021/07/09 15:29:56;;;;;;;12.65;7.32;;;;;;;;;;8239287;28;20085;-71
2021/07/09 15:34:02;;;;;;;12.23;6.30;;;;;;;;;;8215340;28;20492;-70
2021/07/09 15:38:07;;;;;;;9.80;7.13;;;;;;;;;;8226217;28;20041;-69
2021/07/09 15:42:24;;;;;;;11.25;7.35;;;;;;;;;;8223845;28;20488;-69
2021/07/09 15:46:30;;;;;;;16.70;7.40;;;;;;;;;;8238384;28;20490;-70
2021/07/09 15:50:36;;;;;;;10.68;7.68;;;;;;;;;;8221188;28;20389;-71
2021/07/09 15:54:41;;;;;;;12.25;8.50;;;;;;;;;;8223155;28;20333;-71
2021/07/09 15:58:46;;;;;;;12.75;7.80;;;;;;;;;;8226026;28;20067;-70
2021/07/09 16:02:51;;;;;;;10.27;7.88;;;;;;;;;;8228135;28;20388;-70
2021/07/09 16:06:56;;;;;;;8.90;7.32;;;;;;;;;;8229807;28;20445;-71
2021/07/09 16:11:02;;;;;;;13.15;8.02;;;;;;;;;;8227339;28;20522;-70
2021/07/09 16:15:08;;;;;;;15.95;8.00;;;;;;;;;;8229632;28;20375;-71
2021/07/09 16:19:14;;;;;;;13.05;8.27;;;;;;;;;;8205591;28;20372;-70
2021/07/09 16:23:19;;;;;;;13.00;7.45;;;;;;;;;;8211716;28;20083;-70
2021/07/09 16:27:26;;;;;;;16.20;8.25;;;;;;;;;;8228031;28;20045;-71
2021/07/09 16:31:35;;;;;;;12.88;8.20;;;;;;;;;;8227758;28;20061;-72
2021/07/09 16:35:40;;;;;;;13.48;7.90;;;;;;;;;;8227139;28;20052;-71
2021/07/09 16:39:47;;;;;;;17.85;8.75;;;;;;;;;;8227799;28;20388;-72
2021/07/09 16:43:50;;;;;;;15.07;7.95;;;;;;;;;;8226313;28;20461;-72
2021/07/09 16:47:56;;;;;;;13.70;8.38;;;;;;;;;;8210033;28;20591;-72
2021/07/09 16:52:02;;;;;;;15.57;7.95;;;;;;;;;;8226005;28;20369;-71
2021/07/09 16:56:07;;;;;;;10.95;8.00;;;;;;;;;;8227801;28;20373;-70
2021/07/09 17:00:13;;;;;;;12.55;7.30;;;;;;;;;;8226460;28;20535;-71
2021/07/09 17:04:18;;;;;;;13.75;8.02;;;;;;;;;;8228325;28;20395;-72
2021/07/09 17:08:23;;;;;;;13.55;8.05;;;;;;;;;;8227361;28;20460;-71
2021/07/09 17:12:28;;;;;;;14.23;8.15;;;;;;;;;;8227539;28;20368;-71
2021/07/09 17:16:34;;;;;;;11.95;7.60;;;;;;;;;;8226076;28;20350;-72
2021/07/09 17:20:39;;;;;;;20.83;8.55;;;;;;;;;;8225661;28;20407;-72
2021/07/09 17:24:44;;;;;;;11.25;8.73;;;;;;;;;;8226708;28;20041;-70
2021/07/09 17:28:49;;;;;;;13.68;8.60;;;;;;;;;;8228989;28;20376;-71
2021/07/09 17:32:55;;;;;;;14.15;9.30;;;;;;;;;;8226600;28;20423;-70
2021/07/09 17:37:01;;;;;;;19.88;9.15;;;;;;;;;;8186185;28;20391;-70
2021/07/09 17:41:06;;;;;;;14.82;9.32;;;;;;;;;;8229918;28;20491;-70
2021/07/09 17:45:12;;;;;;;12.35;8.70;;;;;;;;;;8185123;28;20375;-71
2021/07/09 17:49:17;;;;;;;13.73;8.50;;;;;;;;;;8232370;28;20468;-70
2021/07/09 17:53:22;;;;;;;12.63;8.10;;;;;;;;;;8225789;28;20353;-72
2021/07/09 17:57:27;;;;;;;14.95;9.43;;;;;;;;;;8224489;28;20511;-73
2021/07/09 18:01:33;;;;;;;15.68;8.82;;;;;;;;;;8225485;28;20356;-73
2021/07/09 18:05:38;;;;;;;12.60;8.45;;;;;;;;;;8227966;28;20041;-72
2021/07/09 18:09:44;;;;;;;11.25;7.32;;;;;;;;;;8226654;28;20408;-72
2021/07/09 18:13:49;;;;;;;9.40;5.40;;;;;;;;;;8223353;28;20353;-73
2021/07/09 18:17:54;;;;;;;11.13;6.03;;;;;;;;;;8226168;28;20353;-72
2021/07/09 18:22:05;;;;;;;10.20;5.85;;;;;;;;;;8225334;28;20034;-72
2021/07/09 18:26:10;;;;;;;8.48;5.85;;;;;;;;;;8207984;28;20349;-72
2021/07/09 18:30:16;;;;;;;9.40;5.82;;;;;;;;;;8225043;28;20420;-71
2021/07/09 18:34:22;;;;;;;11.02;6.05;;;;;;;;;;8224996;28;20046;-71
2021/07/09 18:38:27;;;;;;;7.70;5.78;;;;;;;;;;8224812;28;20496;-71
2021/07/09 18:42:33;;;;;;;12.43;6.18;;;;;;;;;;8224466;28;20041;-72
2021/07/09 18:46:38;;;;;;;13.88;6.70;;;;;;;;;;8225499;28;20404;-72
2021/07/09 18:50:44;;;;;;;12.88;6.95;;;;;;;;;;8224504;28;20065;-71
2021/07/09 18:54:49;;;;;;;12.80;6.63;;;;;;;;;;8194790;28;20487;-72
2021/07/09 18:58:55;;;;;;;10.55;6.68;;;;;;;;;;8207492;28;20473;-71
2021/07/09 19:03:00;;;;;;;11.52;7.55;;;;;;;;;;8194966;28;20357;-71
2021/07/09 19:07:06;;;;;;;14.20;6.82;;;;;;;;;;8190655;28;20364;-73
2021/07/09 19:11:13;;;;;;;12.45;8.32;;;;;;;;;;8193869;28;20050;-70
2021/07/09 19:15:21;;;;;;;11.70;7.75;;;;;;;;;;8192575;28;20466;-71
2021/07/09 19:19:26;;;;;;;11.85;7.78;;;;;;;;;;8192336;28;20046;-72
2021/07/09 19:23:31;;;;;;;14.75;7.40;;;;;;;;;;8192738;28;20484;-71
2021/07/09 19:27:39;;;;;;;10.75;6.50;;;;;;;;;;8193087;28;20466;-70
2021/07/09 19:31:45;;;;;;;7.82;5.43;;;;;;;;;;8193981;28;20045;-70
2021/07/09 19:35:54;;;;;;;7.53;5.03;;;;;;;;;;8197633;28;20397;-70
2021/07/09 19:39:59;;;;;;;6.95;4.90;;;;;;;;;;8197260;28;20507;-72
2021/07/09 19:44:05;;;;;;;5.97;3.97;;;;;;;;;;8200065;28;20054;-72
2021/07/09 19:48:10;;;;;;;7.90;4.30;;;;;;;;;;8196488;28;20503;-72
2021/07/09 19:52:15;;;;;;;10.45;5.68;;;;;;;;;;8195933;28;20404;-70
2021/07/09 19:56:21;;;;;;;6.70;4.63;;;;;;;;;;8197056;28;20493;-72
2021/07/09 20:00:29;;;;;;;9.50;4.93;;;;;;;;;;8199757;28;20479;-72
2021/07/09 20:04:35;;;;;;;6.80;4.35;;;;;;;;;;8196717;28;20492;-71
2021/07/09 20:08:40;;;;;;;6.25;4.65;;;;;;;;;;8197711;28;20372;-70
2021/07/09 20:12:45;;;;;;;13.88;6.72;;;;;;;;;;8180594;28;20072;-73
2021/07/09 20:16:56;;;;;;;8.02;4.63;;;;;;;;;;8196638;28;20068;-71
2021/07/09 20:21:01;;;;;;;4.47;3.55;;;;;;;;;;8196420;28;20396;-72
2021/07/09 20:25:08;;;;;;;5.13;3.85;;;;;;;;;;8196409;28;20381;-70
2021/07/09 20:29:14;;;;;;;10.93;4.20;;;;;;;;;;8196332;28;20484;-71
2021/07/09 20:33:19;;;;;;;4.63;3.22;;;;;;;;;;8194737;28;20057;-70
2021/07/09 20:37:34;;;;;;;6.00;4.15;;;;;;;;;;8195862;28;20357;-70
2021/07/09 20:41:41;;;;;;;5.13;3.58;;;;;;;;;;8193875;28;20364;-71
2021/07/09 20:45:47;;;;;;;7.35;4.10;;;;;;;;;;8194023;28;20492;-70
2021/07/09 20:49:52;;;;;;;8.60;4.40;;;;;;;;;;8197891;28;20380;-72
2021/07/09 20:54:01;;;;;;;5.95;3.75;;;;;;;;;;8104608;28;20450;-70
2021/07/09 20:58:05;;;;;;;7.15;3.88;;;;;;;;;;8131863;28;20443;-72
2021/07/09 21:02:09;;;;;;;9.57;4.53;;;;;;;;;;8133882;28;20066;-70
2021/07/09 21:06:15;;;;;;;23.92;10.18;;;;;;;;;;8137029;28;20489;-70
2021/07/09 21:10:20;;;;;;;15.00;7.15;;;;;;;;;;8178109;28;20084;-71
2021/07/09 21:14:25;;;;;;;13.05;5.30;;;;;;;;;;8163379;28;20361;-73
2021/07/09 21:18:31;;;;;;;5.50;4.00;;;;;;;;;;8162072;28;20105;-70
2021/07/09 21:22:35;;;;;;;6.90;3.88;;;;;;;;;;8161331;28;20064;-70
2021/07/09 21:26:40;;;;;;;5.68;3.60;;;;;;;;;;8177777;28;20393;-70
2021/07/09 21:30:45;;;;;;;7.85;3.90;;;;;;;;;;8161300;28;20468;-70
2021/07/09 21:34:50;;;;;;;9.13;3.47;;;;;;;;;;8176247;28;20374;-70
2021/07/09 21:38:55;;;;;;;9.02;4.38;;;;;;;;;;8164111;28;20369;-72
2021/07/09 21:43:03;;;;;;;5.97;3.50;;;;;;;;;;8161906;28;20050;-72
2021/07/09 21:47:09;;;;;;;8.07;3.95;;;;;;;;;;8162088;28;20454;-70
2021/07/09 21:51:14;;;;;;;6.20;3.70;;;;;;;;;;8182264;28;20586;-69
2021/07/09 21:55:19;;;;;;;8.63;3.42;;;;;;;;;;8223767;28;20396;-72
2021/07/09 21:59:24;;;;;;;4.28;2.92;;;;;;;;;;8224116;28;20360;-71
2021/07/09 22:03:29;;;;;;;7.63;3.78;;;;;;;;;;8209298;28;20372;-71
2021/07/09 22:07:36;;;;;;;7.10;3.38;;;;;;;;;;8226884;28;20456;-70
2021/07/09 22:11:40;;;;;;;10.30;3.78;;;;;;;;;;8223960;28;20372;-71
2021/07/09 22:15:47;;;;;;;6.72;3.20;;;;;;;;;;8224245;28;20445;-71
2021/07/09 22:19:53;;;;;;;9.48;2.80;;;;;;;;;;8228080;28;20613;-72
2021/07/09 22:23:59;;;;;;;3.75;2.60;;;;;;;;;;8227439;28;20486;-70
2021/07/09 22:28:04;;;;;;;4.85;2.55;;;;;;;;;;8225647;28;20045;-72
2021/07/09 22:32:10;;;;;;;4.85;2.38;;;;;;;;;;8224476;28;20476;-71
2021/07/09 22:36:15;;;;;;;4.28;2.22;;;;;;;;;;8225276;28;20467;-72
2021/07/09 22:40:20;;;;;;;16.92;2.17;;;;;;;;;;8223278;28;20064;-70
2021/07/09 22:44:26;;;;;;;4.13;2.45;;;;;;;;;;8223239;28;20068;-70
2021/07/09 22:48:32;;;;;;;2.83;2.35;;;;;;;;;;8225421;28;20480;-70
2021/07/09 22:52:38;;;;;;;3.70;1.98;;;;;;;;;;8224564;28;20498;-72
2021/07/09 22:56:43;;;;;;;3.97;1.80;;;;;;;;;;8228592;28;20471;-70
2021/07/09 23:00:49;;;;;;;9.27;1.73;;;;;;;;;;8224205;28;20467;-70
2021/07/09 23:04:55;;;;;;;3.40;1.83;;;;;;;;;;8226066;28;20459;-69
2021/07/09 23:09:00;;;;;;;5.13;2.75;;;;;;;;;;8224600;28;20441;-70
2021/07/09 23:13:05;;;;;;;3.17;2.40;;;;;;;;;;8224749;28;20050;-72
2021/07/09 23:17:10;;;;;;;4.25;2.10;;;;;;;;;;8225337;28;20353;-70
2021/07/09 23:21:16;;;;;;;3.70;1.92;;;;;;;;;;8222874;28;20461;-72
2021/07/09 23:25:22;;;;;;;3.55;1.67;;;;;;;;;;8224787;28;20381;-71
2021/07/09 23:29:27;;;;;;;10.77;1.88;;;;;;;;;;8222152;28;20380;-71
2021/07/09 23:33:34;;;;;;;2.13;1.42;;;;;;;;;;8227097;28;20495;-72
2021/07/09 23:37:38;;;;;;;3.72;1.27;;;;;;;;;;8223118;28;20084;-72
2021/07/09 23:41:43;;;;;;;4.03;1.23;;;;;;;;;;8224143;28;20460;-72
2021/07/09 23:45:48;;;;;;;3.28;1.30;;;;;;;;;;8223992;28;20066;-70
2021/07/09 23:49:54;;;;;;;3.35;1.30;;;;;;;;;;8223728;28;20488;-70
2021/07/09 23:54:00;;;;;;;2.97;1.10;;;;;;;;;;8223961;28;20477;-72
2021/07/09 23:58:06;;;;;;;3.55;1.15;;;;;;;;;;8223982;28;20456;-71
